createdAt,value
2017-09-13T00:00:00.911Z,1005.65
2017-09-13T00:01:23.063Z,1005.67
2017-09-13T00:02:44.917Z,1005.59
2017-09-13T00:04:06.973Z,1005.61
2017-09-13T00:05:28.584Z,1005.57
2017-09-13T00:06:51.073Z,1005.64
2017-09-13T00:08:13.263Z,1005.67
2017-09-13T00:09:35.393Z,1005.71
2017-09-13T00:10:57.212Z,1005.74
2017-09-13T00:12:19.357Z,1005.67
2017-09-13T00:13:41.835Z,1005.65
2017-09-13T00:15:03.914Z,1005.57
2017-09-13T00:16:26.063Z,1005.58
2017-09-13T00:17:47.884Z,1005.47
2017-09-13T00:19:09.348Z,1005.45
2017-09-13T00:20:31.454Z,1005.44
2017-09-13T00:21:53.627Z,1005.38
2017-09-13T00:23:15.726Z,1005.38
2017-09-13T00:24:37.204Z,1005.36
2017-09-13T00:25:58.939Z,1005.33
2017-09-13T00:27:21.067Z,1005.32
2017-09-13T00:28:43.312Z,1005.3
2017-09-13T00:30:05.454Z,1005.21
2017-09-13T00:31:27.952Z,1005.13
2017-09-13T00:32:50.088Z,1005.08
2017-09-13T00:34:11.933Z,1005.01
2017-09-13T00:35:34.090Z,1005.01
2017-09-13T00:36:56.465Z,1004.93
2017-09-13T00:38:18.300Z,1004.87
2017-09-13T00:39:40.434Z,1004.84
2017-09-13T00:41:02.900Z,1004.87
2017-09-13T00:42:25.288Z,1004.86
2017-09-13T00:43:47.439Z,1004.85
2017-09-13T00:45:09.272Z,1004.83
2017-09-13T00:46:31.766Z,1004.83
2017-09-13T00:47:54.165Z,1004.78
2017-09-13T00:49:16.616Z,1004.76
2017-09-13T00:50:38.731Z,1004.75
2017-09-13T00:52:01.194Z,1004.73
2017-09-13T00:53:23.328Z,1004.74
2017-09-13T00:54:45.132Z,1004.7
2017-09-13T00:56:07.004Z,1004.72
2017-09-13T00:57:28.610Z,1004.69
2017-09-13T00:58:51.044Z,1004.68
2017-09-13T01:00:13.304Z,1004.69
2017-09-13T01:01:35.115Z,1004.71
2017-09-13T01:02:57.573Z,1004.7
2017-09-13T01:04:19.684Z,1004.75
2017-09-13T01:05:41.217Z,1004.73
2017-09-13T01:07:03.381Z,1004.66
2017-09-13T01:08:25.525Z,1004.65
2017-09-13T01:09:47.644Z,1004.6
2017-09-13T01:11:09.460Z,1004.48
2017-09-13T01:12:30.932Z,1004.45
2017-09-13T01:13:52.740Z,1004.37
2017-09-13T01:15:15.212Z,1004.33
2017-09-13T01:16:36.694Z,1004.33
2017-09-13T01:17:58.511Z,1004.35
2017-09-13T01:19:20.635Z,1004.35
2017-09-13T01:20:43.355Z,1004.38
2017-09-13T01:22:05.205Z,1004.3
2017-09-13T01:23:26.713Z,1004.39
2017-09-13T01:24:48.841Z,1004.35
2017-09-13T01:26:10.904Z,1004.3
2017-09-13T01:27:32.711Z,1004.28
2017-09-13T01:28:54.593Z,1004.37
2017-09-13T01:30:16.403Z,1004.32
2017-09-13T01:31:38.474Z,1004.33
2017-09-13T01:33:00.315Z,1004.26
2017-09-13T01:34:21.812Z,1004.17
2017-09-13T01:35:44.274Z,1004.12
2017-09-13T01:37:06.384Z,1004.08
2017-09-13T01:38:28.754Z,1004.01
2017-09-13T01:39:50.243Z,1003.92
2017-09-13T01:41:12.065Z,1003.85
2017-09-13T01:42:33.597Z,1003.8
2017-09-13T01:43:55.170Z,1003.78
2017-09-13T01:45:16.993Z,1003.7
2017-09-13T01:46:39.435Z,1003.81
2017-09-13T01:48:01.813Z,1003.74
2017-09-13T01:49:23.710Z,1003.61
2017-09-13T01:50:45.534Z,1003.61
2017-09-13T01:52:07.361Z,1003.54
2017-09-13T01:53:29.400Z,1003.49
2017-09-13T01:54:50.886Z,1003.51
2017-09-13T01:56:13.016Z,1003.39
2017-09-13T01:57:35.172Z,1003.39
2017-09-13T01:58:57.865Z,1003.29
2017-09-13T02:00:19.696Z,1003.25
2017-09-13T02:01:41.926Z,1003.09
2017-09-13T02:03:03.754Z,1003.02
2017-09-13T02:04:25.815Z,1003.06
2017-09-13T02:05:47.658Z,1003.12
2017-09-13T02:07:09.835Z,1003.06
2017-09-13T02:08:32.285Z,1002.99
2017-09-13T02:09:54.666Z,1002.91
2017-09-13T02:11:16.782Z,1002.84
2017-09-13T02:12:38.264Z,1002.81
2017-09-13T02:14:00.396Z,1002.73
2017-09-13T02:15:22.883Z,1002.71
2017-09-13T02:16:45.046Z,1002.69
2017-09-13T02:18:07.507Z,1002.75
2017-09-13T02:19:29.304Z,1002.75
2017-09-13T02:20:51.367Z,1002.69
2017-09-13T02:22:12.854Z,1002.66
2017-09-13T02:23:34.673Z,1002.59
2017-09-13T02:24:56.484Z,1002.49
2017-09-13T02:26:18.521Z,1002.51
2017-09-13T02:27:39.587Z,1002.56
2017-09-13T02:29:01.405Z,1002.51
2017-09-13T02:30:23.271Z,1002.42
2017-09-13T02:31:45.884Z,1002.39
2017-09-13T02:33:08.028Z,1002.4
2017-09-13T02:34:30.494Z,1002.32
2017-09-13T02:35:51.974Z,1002.31
2017-09-13T02:37:14.444Z,1002.36
2017-09-13T02:38:36.904Z,1002.37
2017-09-13T02:39:58.746Z,1002.24
2017-09-13T02:41:20.551Z,1002.15
2017-09-13T02:42:42.984Z,1002.1
2017-09-13T02:44:04.965Z,1002.08
2017-09-13T02:45:27.404Z,1002.07
2017-09-13T02:46:49.214Z,1002.13
2017-09-13T02:48:11.085Z,1001.99
2017-09-13T02:49:32.912Z,1001.95
2017-09-13T02:50:55.132Z,1001.86
2017-09-13T02:52:17.283Z,1001.84
2017-09-13T02:53:39.682Z,1001.83
2017-09-13T02:55:01.858Z,1001.77
2017-09-13T02:56:23.332Z,1001.76
2017-09-13T02:57:45.846Z,1001.7
2017-09-13T02:59:08.231Z,1001.61
2017-09-13T03:00:30.683Z,1001.59
2017-09-13T03:01:53.150Z,1001.56
2017-09-13T03:03:15.260Z,1001.51
2017-09-13T03:04:37.642Z,1001.44
2017-09-13T03:05:59.894Z,1001.37
2017-09-13T03:07:22.024Z,1001.34
2017-09-13T03:08:44.152Z,1001.34
2017-09-13T03:10:05.954Z,1001.29
2017-09-13T03:11:27.454Z,1001.29
2017-09-13T03:12:49.253Z,1001.34
2017-09-13T03:14:11.481Z,1001.28
2017-09-13T03:15:33.862Z,1001.29
2017-09-13T03:16:56.063Z,1001.19
2017-09-13T03:18:18.533Z,1001.07
2017-09-13T03:19:40.402Z,1001.07
2017-09-13T03:21:02.793Z,1001.15
2017-09-13T03:22:24.912Z,1001.09
2017-09-13T03:23:47.484Z,1001.09
2017-09-13T03:25:09.296Z,1001.17
2017-09-13T03:26:31.755Z,1001.18
2017-09-13T03:27:53.877Z,1001.17
2017-09-13T03:29:15.771Z,1001.03
2017-09-13T03:30:37.318Z,1001.01
2017-09-13T03:32:00.228Z,1001.04
2017-09-13T03:33:22.106Z,1001.07
2017-09-13T03:34:43.931Z,1000.97
2017-09-13T03:36:05.751Z,1000.91
2017-09-13T03:37:27.694Z,1000.8
2017-09-13T03:38:48.527Z,1000.71
2017-09-13T03:40:10.333Z,1000.6
2017-09-13T03:41:32.492Z,1000.47
2017-09-13T03:42:53.698Z,1000.46
2017-09-13T03:44:15.503Z,1000.37
2017-09-13T03:45:37.321Z,1000.32
2017-09-13T03:46:59.442Z,1000.25
2017-09-13T03:48:22.281Z,1000.23
2017-09-13T03:49:44.087Z,1000.12
2017-09-13T03:51:05.682Z,1000.08
2017-09-13T03:52:28.131Z,999.98
2017-09-13T03:53:49.572Z,999.88
2017-09-13T03:55:11.801Z,999.91
2017-09-13T03:56:33.941Z,999.93
2017-09-13T03:57:56.103Z,999.89
2017-09-13T03:59:18.164Z,999.86
2017-09-13T04:00:39.649Z,999.75
2017-09-13T04:02:01.142Z,999.71
2017-09-13T04:03:22.633Z,999.45
2017-09-13T04:04:45.013Z,999.38
2017-09-13T04:06:06.861Z,999.28
2017-09-13T04:07:29.315Z,999.24
2017-09-13T04:08:51.502Z,999.2
2017-09-13T04:10:13.995Z,999.16
2017-09-13T04:11:36.276Z,999.09
2017-09-13T04:12:58.738Z,999
2017-09-13T04:14:20.872Z,999.02
2017-09-13T04:15:43.042Z,998.9
2017-09-13T04:17:05.559Z,998.87
2017-09-13T04:18:28.012Z,998.77
2017-09-13T04:19:50.152Z,998.66
2017-09-13T04:21:12.643Z,998.6
2017-09-13T04:22:35.114Z,998.57
2017-09-13T04:23:57.582Z,998.52
2017-09-13T04:25:19.123Z,998.46
2017-09-13T04:26:41.882Z,998.36
2017-09-13T04:28:03.373Z,998.24
2017-09-13T04:29:25.534Z,998.2
2017-09-13T04:30:47.823Z,998.17
2017-09-13T04:32:10.192Z,998.07
2017-09-13T04:33:32.012Z,998.03
2017-09-13T04:34:53.623Z,997.97
2017-09-13T04:36:15.813Z,997.93
2017-09-13T04:37:38.201Z,997.88
2017-09-13T04:39:00.031Z,997.83
2017-09-13T04:40:21.863Z,997.75
2017-09-13T04:41:43.731Z,997.68
2017-09-13T04:43:06.496Z,997.56
2017-09-13T04:44:28.967Z,997.54
2017-09-13T04:45:50.782Z,997.5
2017-09-13T04:47:12.282Z,997.42
2017-09-13T04:48:34.721Z,997.44
2017-09-13T04:49:56.859Z,997.39
2017-09-13T04:51:18.469Z,997.23
2017-09-13T04:52:40.633Z,997.15
2017-09-13T04:54:03.113Z,997.11
2017-09-13T04:55:24.932Z,997.08
2017-09-13T04:56:47.071Z,996.97
2017-09-13T04:58:09.186Z,996.88
2017-09-13T04:59:31.583Z,996.85
2017-09-13T05:00:53.703Z,996.77
2017-09-13T05:02:15.538Z,996.78
2017-09-13T05:03:37.693Z,996.63
2017-09-13T05:05:00.155Z,996.5
2017-09-13T05:06:22.713Z,996.53
2017-09-13T05:07:44.875Z,996.48
2017-09-13T05:09:07.058Z,996.43
2017-09-13T05:10:29.732Z,996.42
2017-09-13T05:11:51.880Z,996.34
2017-09-13T05:13:14.110Z,996.34
2017-09-13T05:14:35.612Z,996.31
2017-09-13T05:15:57.803Z,996.23
2017-09-13T05:17:19.301Z,996.17
2017-09-13T05:18:41.501Z,996.15
2017-09-13T05:20:03.322Z,996.09
2017-09-13T05:21:25.802Z,996.1
2017-09-13T05:22:47.765Z,996.02
2017-09-13T05:24:09.904Z,995.99
2017-09-13T05:25:32.159Z,995.99
2017-09-13T05:26:54.236Z,995.99
2017-09-13T05:28:16.381Z,995.98
2017-09-13T05:29:38.204Z,995.91
2017-09-13T05:31:00.792Z,995.98
2017-09-13T05:32:23.568Z,995.96
2017-09-13T05:33:46.037Z,995.9
2017-09-13T05:35:08.497Z,995.86
2017-09-13T05:36:30.290Z,995.85
2017-09-13T05:37:51.723Z,995.83
2017-09-13T05:39:14.182Z,995.79
2017-09-13T05:40:36.323Z,995.85
2017-09-13T05:41:58.472Z,995.8
2017-09-13T05:43:20.684Z,995.75
2017-09-13T05:44:42.181Z,995.58
2017-09-13T05:46:03.990Z,995.49
2017-09-13T05:47:26.133Z,995.54
2017-09-13T05:48:48.853Z,995.56
2017-09-13T05:50:11.045Z,995.47
2017-09-13T05:51:33.350Z,995.42
2017-09-13T05:52:56.013Z,995.35
2017-09-13T05:54:18.508Z,995.28
2017-09-13T05:55:39.763Z,995.32
2017-09-13T05:57:01.951Z,995.28
2017-09-13T05:58:24.447Z,995.21
2017-09-13T05:59:46.941Z,995.2
2017-09-13T06:01:09.414Z,995.24
2017-09-13T06:02:31.561Z,995.25
2017-09-13T06:03:53.854Z,995.27
2017-09-13T06:05:15.942Z,995.18
2017-09-13T06:06:37.759Z,995.09
2017-09-13T06:07:59.258Z,995.07
2017-09-13T06:09:21.396Z,994.99
2017-09-13T06:10:43.787Z,994.95
2017-09-13T06:12:05.328Z,994.96
2017-09-13T06:13:27.893Z,994.87
2017-09-13T06:14:50.062Z,994.77
2017-09-13T06:16:12.184Z,994.76
2017-09-13T06:17:34.763Z,994.85
2017-09-13T06:18:57.257Z,994.79
2017-09-13T06:20:19.071Z,994.93
2017-09-13T06:21:41.482Z,994.82
2017-09-13T06:23:04.048Z,994.76
2017-09-13T06:24:26.223Z,994.76
2017-09-13T06:25:48.395Z,994.68
2017-09-13T06:27:10.504Z,994.65
2017-09-13T06:28:32.660Z,994.65
2017-09-13T06:29:54.472Z,994.58
2017-09-13T06:31:16.383Z,994.67
2017-09-13T06:32:38.754Z,994.51
2017-09-13T06:34:00.609Z,994.63
2017-09-13T06:35:21.782Z,994.65
2017-09-13T06:36:43.266Z,994.55
2017-09-13T06:38:05.968Z,994.62
2017-09-13T06:39:28.123Z,994.55
2017-09-13T06:40:50.323Z,994.48
2017-09-13T06:42:12.258Z,994.37
2017-09-13T06:43:34.701Z,994.27
2017-09-13T06:44:56.662Z,994.31
2017-09-13T06:46:18.812Z,994.3
2017-09-13T06:47:41.363Z,994.24
2017-09-13T06:49:03.776Z,994.31
2017-09-13T06:50:25.597Z,994.26
2017-09-13T06:51:47.733Z,994.19
2017-09-13T06:53:09.874Z,994.13
2017-09-13T06:54:31.619Z,994.04
2017-09-13T06:55:53.843Z,993.98
2017-09-13T06:57:15.961Z,993.97
2017-09-13T06:58:38.119Z,993.99
2017-09-13T07:00:00.582Z,993.86
2017-09-13T07:01:22.730Z,993.8
2017-09-13T07:02:44.863Z,993.75
2017-09-13T07:04:06.992Z,993.64
2017-09-13T07:05:29.402Z,993.64
2017-09-13T07:06:50.910Z,993.59
2017-09-13T07:08:13.352Z,993.68
2017-09-13T07:09:34.608Z,993.67
2017-09-13T07:10:56.753Z,993.69
2017-09-13T07:12:18.892Z,993.66
2017-09-13T07:13:40.714Z,993.67
2017-09-13T07:15:02.943Z,993.72
2017-09-13T07:16:25.520Z,993.71
2017-09-13T07:17:47.681Z,993.71
2017-09-13T07:19:09.503Z,993.63
2017-09-13T07:20:31.635Z,993.57
2017-09-13T07:21:54.431Z,993.53
2017-09-13T07:23:16.272Z,993.49
2017-09-13T07:24:38.424Z,993.47
2017-09-13T07:26:01.033Z,993.39
2017-09-13T07:27:23.192Z,993.41
2017-09-13T07:28:45.322Z,993.38
2017-09-13T07:30:07.793Z,993.31
2017-09-13T07:31:29.402Z,993.3
2017-09-13T07:32:51.583Z,993.21
2017-09-13T07:34:13.411Z,993.19
2017-09-13T07:35:35.713Z,993.22
2017-09-13T07:36:57.543Z,993.18
2017-09-13T07:38:20.260Z,993.16
2017-09-13T07:39:42.092Z,993.19
2017-09-13T07:41:03.589Z,993.22
2017-09-13T07:42:25.471Z,993.15
2017-09-13T07:43:48.202Z,993.11
2017-09-13T07:45:10.023Z,993.11
2017-09-13T07:46:31.633Z,993.1
2017-09-13T07:47:53.440Z,993.08
2017-09-13T07:49:15.681Z,993.01
2017-09-13T07:50:37.482Z,992.95
2017-09-13T07:51:59.295Z,993.02
2017-09-13T07:53:21.112Z,992.85
2017-09-13T07:54:43.890Z,992.86
2017-09-13T07:56:05.728Z,992.84
2017-09-13T07:57:26.588Z,992.83
2017-09-13T07:58:48.723Z,992.78
2017-09-13T08:00:11.273Z,992.83
2017-09-13T08:01:33.753Z,992.71
2017-09-13T08:02:55.924Z,992.75
2017-09-13T08:04:18.381Z,992.76
2017-09-13T08:05:40.772Z,992.83
2017-09-13T08:07:02.913Z,992.84
2017-09-13T08:08:25.182Z,992.84
2017-09-13T08:09:47.003Z,992.84
2017-09-13T08:11:08.852Z,992.88
2017-09-13T08:12:30.694Z,992.77
2017-09-13T08:13:52.916Z,992.81
2017-09-13T08:15:15.042Z,992.84
2017-09-13T08:16:36.903Z,992.73
2017-09-13T08:17:59.043Z,992.78
2017-09-13T08:19:20.225Z,992.71
2017-09-13T08:20:42.382Z,992.72
2017-09-13T08:22:04.718Z,992.72
2017-09-13T08:23:26.342Z,992.66
2017-09-13T08:24:48.532Z,992.72
2017-09-13T08:26:10.050Z,992.63
2017-09-13T08:27:32.143Z,992.56
2017-09-13T08:28:54.424Z,992.55
2017-09-13T08:30:16.873Z,992.49
2017-09-13T08:31:38.384Z,992.41
2017-09-13T08:33:01.153Z,992.49
2017-09-13T08:34:22.984Z,992.38
2017-09-13T08:35:45.164Z,992.35
2017-09-13T08:37:07.063Z,992.33
2017-09-13T08:38:29.463Z,992.35
2017-09-13T08:39:51.294Z,992.27
2017-09-13T08:41:13.424Z,992.19
2017-09-13T08:42:35.584Z,992.21
2017-09-13T08:43:58.303Z,992.21
2017-09-13T08:45:19.506Z,992.21
2017-09-13T08:46:41.974Z,992.17
2017-09-13T08:48:04.169Z,992.2
2017-09-13T08:49:26.433Z,992.18
2017-09-13T08:50:48.601Z,992.14
2017-09-13T08:52:10.450Z,992.15
2017-09-13T08:53:32.700Z,992.26
2017-09-13T08:54:55.107Z,992.13
2017-09-13T08:56:17.592Z,992.09
2017-09-13T08:57:39.743Z,992.07
2017-09-13T08:59:01.612Z,991.9
2017-09-13T09:00:23.713Z,992.03
2017-09-13T09:01:45.573Z,991.99
2017-09-13T09:03:07.102Z,992.18
2017-09-13T09:04:29.235Z,992.16
2017-09-13T09:05:51.944Z,992.16
2017-09-13T09:07:14.086Z,992.28
2017-09-13T09:08:35.604Z,992.12
2017-09-13T09:09:57.767Z,992.1
2017-09-13T09:11:20.493Z,992.11
2017-09-13T09:12:42.032Z,992.12
2017-09-13T09:14:03.880Z,991.97
2017-09-13T09:15:26.044Z,992.1
2017-09-13T09:16:48.456Z,992.02
2017-09-13T09:18:10.271Z,992.16
2017-09-13T09:19:32.485Z,991.96
2017-09-13T09:20:54.637Z,992.03
2017-09-13T09:22:16.712Z,992.05
2017-09-13T09:23:38.561Z,992.14
2017-09-13T09:25:00.694Z,992.22
2017-09-13T09:26:22.197Z,992.09
2017-09-13T09:27:44.316Z,992.14
2017-09-13T09:29:05.813Z,992.05
2017-09-13T09:30:27.349Z,992.18
2017-09-13T09:31:49.284Z,992.24
2017-09-13T09:33:11.415Z,992.31
2017-09-13T09:34:33.954Z,992.2
2017-09-13T09:35:56.112Z,992.21
2017-09-13T09:37:18.312Z,992.25
2017-09-13T09:38:40.794Z,992.33
2017-09-13T09:40:02.715Z,992.42
2017-09-13T09:41:25.251Z,992.21
2017-09-13T09:42:46.866Z,992.12
2017-09-13T09:44:09.573Z,992.23
2017-09-13T09:45:31.716Z,992.23
2017-09-13T09:46:53.564Z,992.22
2017-09-13T09:48:15.753Z,992.26
2017-09-13T09:49:37.884Z,992.4
2017-09-13T09:51:00.334Z,992.43
2017-09-13T09:52:22.484Z,992.58
2017-09-13T09:53:44.957Z,992.49
2017-09-13T09:55:07.703Z,992.51
2017-09-13T09:56:29.224Z,992.49
2017-09-13T09:57:50.413Z,992.54
2017-09-13T09:59:11.916Z,992.25
2017-09-13T10:00:34.292Z,992.36
2017-09-13T10:01:55.486Z,992.17
2017-09-13T10:03:17.619Z,992.33
2017-09-13T10:04:39.453Z,992.32
2017-09-13T10:06:02.386Z,992.31
2017-09-13T10:07:24.864Z,992.38
2017-09-13T10:08:46.728Z,992.47
2017-09-13T10:10:08.905Z,992.84
2017-09-13T10:11:31.372Z,992.47
2017-09-13T10:12:53.923Z,992.62
2017-09-13T10:14:15.743Z,992.51
2017-09-13T10:15:37.564Z,992.6
2017-09-13T10:17:00.045Z,992.55
2017-09-13T10:18:22.534Z,992.63
2017-09-13T10:19:44.724Z,992.56
2017-09-13T10:21:06.935Z,992.55
2017-09-13T10:22:29.423Z,992.66
2017-09-13T10:23:51.654Z,992.65
2017-09-13T10:25:13.798Z,992.54
2017-09-13T10:26:36.268Z,992.61
2017-09-13T10:27:58.398Z,992.55
2017-09-13T10:29:20.224Z,992.52
2017-09-13T10:30:41.734Z,992.59
2017-09-13T10:32:03.961Z,992.49
2017-09-13T10:33:26.184Z,992.74
2017-09-13T10:34:48.107Z,992.94
2017-09-13T10:36:09.956Z,992.88
2017-09-13T10:37:32.153Z,992.94
2017-09-13T10:38:54.624Z,992.64
2017-09-13T10:40:16.554Z,992.94
2017-09-13T10:41:38.115Z,993.08
2017-09-13T10:43:00.673Z,993.03
2017-09-13T10:44:22.765Z,992.92
2017-09-13T10:45:45.343Z,993.09
2017-09-13T10:47:07.506Z,993.16
2017-09-13T10:48:29.653Z,993.12
2017-09-13T10:49:52.144Z,993.12
2017-09-13T10:51:13.661Z,992.95
2017-09-13T10:52:35.495Z,993.22
2017-09-13T10:53:57.342Z,993.07
2017-09-13T10:55:19.883Z,993.14
2017-09-13T10:56:42.018Z,993.12
2017-09-13T10:58:04.503Z,993.18
2017-09-13T10:59:26.393Z,993.25
2017-09-13T11:00:48.288Z,993.25
2017-09-13T11:02:10.792Z,993.19
2017-09-13T11:03:32.952Z,993.26
2017-09-13T11:04:55.084Z,993.38
2017-09-13T11:06:18.044Z,993.41
2017-09-13T11:07:40.204Z,993.29
2017-09-13T11:09:02.013Z,993.33
2017-09-13T11:10:23.861Z,993.28
2017-09-13T11:11:46.706Z,993.27
2017-09-13T11:13:08.531Z,993.32
2017-09-13T11:14:30.027Z,993.33
2017-09-13T11:15:52.175Z,993.25
2017-09-13T11:17:14.984Z,993.23
2017-09-13T11:18:36.163Z,993.28
2017-09-13T11:19:57.975Z,993.35
2017-09-13T11:21:20.144Z,993.33
2017-09-13T11:22:42.952Z,993.3
2017-09-13T11:24:05.189Z,993.22
2017-09-13T11:25:27.071Z,993.3
2017-09-13T11:26:49.244Z,993.29
2017-09-13T11:28:11.790Z,993.27
2017-09-13T11:29:34.258Z,993.23
2017-09-13T11:30:56.721Z,993.27
2017-09-13T11:32:18.884Z,993.1
2017-09-13T11:33:40.778Z,993.31
2017-09-13T11:35:03.244Z,993.13
2017-09-13T11:36:25.392Z,993.31
2017-09-13T11:37:47.555Z,992.91
2017-09-13T11:39:10.274Z,993.16
2017-09-13T11:40:31.773Z,993.09
2017-09-13T11:41:53.603Z,993.05
2017-09-13T11:43:15.772Z,993.15
2017-09-13T11:44:38.264Z,993.35
2017-09-13T11:46:00.741Z,993.18
2017-09-13T11:47:22.884Z,993.28
2017-09-13T11:48:45.352Z,993.31
2017-09-13T11:50:07.874Z,993.33
2017-09-13T11:51:30.027Z,993.32
2017-09-13T11:52:52.493Z,993.46
2017-09-13T11:54:13.771Z,993.22
2017-09-13T11:55:36.212Z,993.44
2017-09-13T11:56:58.487Z,993.55
2017-09-13T11:58:20.948Z,993.51
2017-09-13T11:59:42.833Z,993.76
2017-09-13T12:01:05.226Z,993.75
2017-09-13T12:02:27.374Z,993.52
2017-09-13T12:03:49.554Z,993.63
2017-09-13T12:05:11.373Z,993.85
2017-09-13T12:06:33.918Z,993.76
2017-09-13T12:07:56.393Z,993.72
2017-09-13T12:09:18.213Z,993.85
2017-09-13T12:10:40.674Z,993.89
2017-09-13T12:12:02.867Z,993.91
2017-09-13T12:13:25.006Z,993.75
2017-09-13T12:14:47.173Z,993.81
2017-09-13T12:16:08.678Z,994.1
2017-09-13T12:17:31.175Z,993.86
2017-09-13T12:18:53.014Z,993.73
2017-09-13T12:20:14.531Z,993.88
2017-09-13T12:21:36.684Z,994.03
2017-09-13T12:22:59.089Z,994.11
2017-09-13T12:24:21.245Z,994.13
2017-09-13T12:25:43.387Z,994.24
2017-09-13T12:27:05.855Z,994.15
2017-09-13T12:28:28.348Z,994.12
2017-09-13T12:29:50.826Z,994.26
2017-09-13T12:31:13.108Z,994.32
2017-09-13T12:32:34.603Z,994.17
2017-09-13T12:33:56.734Z,994.18
2017-09-13T12:35:18.285Z,994.17
2017-09-13T12:36:40.239Z,994.25
2017-09-13T12:38:02.420Z,994.46
2017-09-13T12:39:25.163Z,994.27
2017-09-13T12:40:47.335Z,994.14
2017-09-13T12:42:09.609Z,994.31
2017-09-13T12:43:31.527Z,994.38
2017-09-13T12:44:54.050Z,994.26
2017-09-13T12:46:16.653Z,994.32
2017-09-13T12:47:39.137Z,994.31
2017-09-13T12:49:00.363Z,994.15
2017-09-13T12:50:22.878Z,994.33
2017-09-13T12:51:44.413Z,994.48
2017-09-13T12:53:06.554Z,994.42
2017-09-13T12:54:29.020Z,994.59
2017-09-13T12:55:50.879Z,994.48
2017-09-13T12:57:13.346Z,994.49
2017-09-13T12:58:35.504Z,994.44
2017-09-13T12:59:57.997Z,994.65
2017-09-13T13:01:20.863Z,994.65
2017-09-13T13:02:43.029Z,994.8
2017-09-13T13:04:05.182Z,994.69
2017-09-13T13:05:26.711Z,994.66
2017-09-13T13:06:49.343Z,994.72
2017-09-13T13:08:10.863Z,994.81
2017-09-13T13:09:32.406Z,994.62
2017-09-13T13:10:54.575Z,994.57
2017-09-13T13:12:17.077Z,994.86
2017-09-13T13:13:39.226Z,994.83
2017-09-13T13:15:01.721Z,994.84
2017-09-13T13:16:24.206Z,994.84
2017-09-13T13:17:46.912Z,994.66
2017-09-13T13:19:09.056Z,994.68
2017-09-13T13:20:30.890Z,994.87
2017-09-13T13:21:53.054Z,994.81
2017-09-13T13:23:15.612Z,994.88
2017-09-13T13:24:37.516Z,994.7
2017-09-13T13:25:59.809Z,994.97
2017-09-13T13:27:22.096Z,994.88
2017-09-13T13:28:44.602Z,994.93
2017-09-13T13:30:06.883Z,994.77
2017-09-13T13:31:28.874Z,994.73
2017-09-13T13:32:50.715Z,994.71
2017-09-13T13:34:13.172Z,994.79
2017-09-13T13:35:34.998Z,994.87
2017-09-13T13:36:56.502Z,995
2017-09-13T13:38:18.012Z,994.63
2017-09-13T13:39:40.462Z,994.83
2017-09-13T13:41:02.296Z,994.95
2017-09-13T13:42:24.458Z,994.82
2017-09-13T13:43:46.602Z,994.96
2017-09-13T13:45:09.024Z,994.87
2017-09-13T13:46:31.195Z,994.95
2017-09-13T13:47:52.712Z,994.98
2017-09-13T13:49:14.892Z,994.86
2017-09-13T13:50:37.323Z,994.98
2017-09-13T13:51:59.571Z,994.85
2017-09-13T13:53:21.215Z,994.91
2017-09-13T13:54:43.748Z,995.13
2017-09-13T13:56:05.765Z,994.71
2017-09-13T13:57:27.577Z,995.13
2017-09-13T13:58:50.149Z,995.23
2017-09-13T14:00:12.321Z,995.35
2017-09-13T14:01:34.513Z,995.25
2017-09-13T14:02:56.995Z,995.4
2017-09-13T14:04:18.826Z,995.34
2017-09-13T14:05:41.301Z,995.21
2017-09-13T14:07:03.881Z,995.14
2017-09-13T14:08:26.164Z,995.24
2017-09-13T14:09:48.355Z,995.16
2017-09-13T14:11:10.842Z,995.44
2017-09-13T14:12:33.609Z,995.36
2017-09-13T14:13:55.460Z,995.22
2017-09-13T14:15:18.052Z,995.35
2017-09-13T14:16:39.556Z,995.05
2017-09-13T14:18:01.932Z,995.39
2017-09-13T14:19:24.595Z,995.29
2017-09-13T14:20:47.124Z,995.64
2017-09-13T14:22:09.344Z,995.54
2017-09-13T14:23:31.867Z,995.34
2017-09-13T14:24:53.693Z,995.16
2017-09-13T14:26:16.184Z,995.44
2017-09-13T14:27:38.354Z,995.51
2017-09-13T14:29:01.182Z,995.49
2017-09-13T14:30:23.345Z,995.67
2017-09-13T14:31:45.816Z,995.6
2017-09-13T14:33:08.282Z,995.51
2017-09-13T14:34:30.664Z,995.54
2017-09-13T14:35:52.922Z,995.59
2017-09-13T14:37:14.801Z,995.57
2017-09-13T14:38:36.955Z,995.61
2017-09-13T14:40:00.213Z,995.32
2017-09-13T14:41:22.373Z,995.49
2017-09-13T14:42:44.849Z,995.82
2017-09-13T14:44:07.125Z,995.62
2017-09-13T14:45:29.586Z,995.72
2017-09-13T14:46:51.783Z,995.66
2017-09-13T14:48:14.294Z,995.68
2017-09-13T14:49:36.217Z,995.76
2017-09-13T14:50:58.900Z,995.54
2017-09-13T14:52:21.075Z,995.63
2017-09-13T14:53:43.624Z,995.75
2017-09-13T14:55:05.833Z,995.78
2017-09-13T14:56:28.665Z,995.85
2017-09-13T14:57:51.285Z,995.8
2017-09-13T14:59:13.434Z,995.87
2017-09-13T15:00:35.993Z,995.87
2017-09-13T15:01:58.504Z,995.92
2017-09-13T15:03:21.122Z,996.05
2017-09-13T15:04:43.283Z,995.91
2017-09-13T15:06:05.222Z,995.83
2017-09-13T15:07:27.725Z,995.94
2017-09-13T15:08:50.323Z,996
2017-09-13T15:10:12.920Z,995.91
2017-09-13T15:11:35.089Z,996.01
2017-09-13T15:12:57.894Z,996.11
2017-09-13T15:14:20.373Z,996.19
2017-09-13T15:15:42.830Z,996.12
2017-09-13T15:17:04.673Z,996.04
2017-09-13T15:18:27.424Z,996.08
2017-09-13T15:19:49.274Z,996.12
2017-09-13T15:21:11.751Z,996
2017-09-13T15:22:34.435Z,996.27
2017-09-13T15:23:56.932Z,996.32
2017-09-13T15:25:19.109Z,996.31
2017-09-13T15:26:41.275Z,996.12
2017-09-13T15:28:03.943Z,996.43
2017-09-13T15:29:26.835Z,996.44
2017-09-13T15:30:49.004Z,996.41
2017-09-13T15:32:11.304Z,996.45
2017-09-13T15:33:33.782Z,996.52
2017-09-13T15:34:56.554Z,996.67
2017-09-13T15:36:18.444Z,996.66
2017-09-13T15:37:40.652Z,996.65
2017-09-13T15:39:03.124Z,996.69
2017-09-13T15:40:25.993Z,996.78
2017-09-13T15:41:47.833Z,996.76
2017-09-13T15:43:10.324Z,996.89
2017-09-13T15:44:32.911Z,996.72
2017-09-13T15:45:55.709Z,996.79
2017-09-13T15:47:18.193Z,996.84
2017-09-13T15:48:40.125Z,996.87
2017-09-13T15:50:02.605Z,996.84
2017-09-13T15:51:25.454Z,996.78
2017-09-13T15:52:47.935Z,996.82
2017-09-13T15:54:10.629Z,996.85
2017-09-13T15:55:33.103Z,996.88
2017-09-13T15:56:55.933Z,996.76
2017-09-13T15:58:18.440Z,996.79
2017-09-13T15:59:39.641Z,996.77
2017-09-13T16:01:01.813Z,996.85
2017-09-13T16:02:24.410Z,996.74
2017-09-13T16:03:46.583Z,996.81
2017-09-13T16:05:09.071Z,996.65
2017-09-13T16:06:30.900Z,996.83
2017-09-13T16:07:53.414Z,996.83
2017-09-13T16:09:15.585Z,996.75
2017-09-13T16:10:38.072Z,996.78
2017-09-13T16:11:59.980Z,996.78
2017-09-13T16:13:22.484Z,996.89
2017-09-13T16:14:44.950Z,996.85
2017-09-13T16:16:07.195Z,996.9
2017-09-13T16:17:28.724Z,996.97
2017-09-13T16:18:50.945Z,996.94
2017-09-13T16:20:13.454Z,996.9
2017-09-13T16:21:35.934Z,996.88
2017-09-13T16:22:58.143Z,996.84
2017-09-13T16:24:20.314Z,996.87
2017-09-13T16:25:42.474Z,996.83
2017-09-13T16:27:04.303Z,996.73
2017-09-13T16:28:25.814Z,996.83
2017-09-13T16:29:48.609Z,996.8
2017-09-13T16:31:10.775Z,996.83
2017-09-13T16:32:32.954Z,996.79
2017-09-13T16:33:55.428Z,996.82
2017-09-13T16:35:17.984Z,996.74
2017-09-13T16:36:40.454Z,996.74
2017-09-13T16:38:02.616Z,996.67
2017-09-13T16:39:25.073Z,996.72
2017-09-13T16:40:47.235Z,996.72
2017-09-13T16:42:09.393Z,996.66
2017-09-13T16:43:31.887Z,996.66
2017-09-13T16:44:54.372Z,996.65
2017-09-13T16:46:16.885Z,996.61
2017-09-13T16:47:39.024Z,996.63
2017-09-13T16:49:01.186Z,996.6
2017-09-13T16:50:23.394Z,996.66
2017-09-13T16:51:46.222Z,996.8
2017-09-13T16:53:08.712Z,996.71
2017-09-13T16:54:30.544Z,996.74
2017-09-13T16:55:53.095Z,996.76
2017-09-13T16:57:15.684Z,996.76
2017-09-13T16:58:38.154Z,996.78
2017-09-13T17:00:00.430Z,996.84